sensor_id;sensor_type;location;lat;lon;timestamp;P1;durP1;ratioP1;P2;durP2;ratioP2
17259;SDS011;8746;49.230;9.220;2023-06-10T00:01:43;6.93;;;6.37;;
17259;SDS011;8746;49.230;9.220;2023-06-10T00:04:12;7.50;;;6.33;;
17259;SDS011;8746;49.230;9.220;2023-06-10T00:06:37;7.13;;;6.53;;
17259;SDS011;8746;49.230;9.220;2023-06-10T00:09:04;7.40;;;6.70;;
17259;SDS011;8746;49.230;9.220;2023-06-10T00:11:33;7.10;;;6.60;;
17259;SDS011;8746;49.230;9.220;2023-06-10T00:13:58;6.80;;;6.30;;
17259;SDS011;8746;49.230;9.220;2023-06-10T00:16:24;7.20;;;6.60;;
17259;SDS011;8746;49.230;9.220;2023-06-10T00:18:50;7.73;;;7.03;;
17259;SDS011;8746;49.230;9.220;2023-06-10T00:21:16;7.17;;;6.57;;
17259;SDS011;8746;49.230;9.220;2023-06-10T00:23:41;7.63;;;6.83;;
17259;SDS011;8746;49.230;9.220;2023-06-10T00:26:07;7.23;;;6.57;;
17259;SDS011;8746;49.230;9.220;2023-06-10T00:28:32;10.17;;;7.03;;
17259;SDS011;8746;49.230;9.220;2023-06-10T00:30:57;7.00;;;6.40;;
17259;SDS011;8746;49.230;9.220;2023-06-10T00:33:23;7.23;;;6.63;;
17259;SDS011;8746;49.230;9.220;2023-06-10T00:35:48;6.87;;;6.27;;
17259;SDS011;8746;49.230;9.220;2023-06-10T00:38:14;7.70;;;6.93;;
17259;SDS011;8746;49.230;9.220;2023-06-10T00:40:40;7.00;;;6.40;;
17259;SDS011;8746;49.230;9.220;2023-06-10T00:43:06;7.20;;;6.60;;
17259;SDS011;8746;49.230;9.220;2023-06-10T00:45:31;6.93;;;6.33;;
17259;SDS011;8746;49.230;9.220;2023-06-10T00:47:57;7.13;;;6.63;;
17259;SDS011;8746;49.230;9.220;2023-06-10T00:50:23;7.60;;;6.73;;
17259;SDS011;8746;49.230;9.220;2023-06-10T00:52:48;7.23;;;6.67;;
17259;SDS011;8746;49.230;9.220;2023-06-10T00:55:18;7.33;;;6.67;;
17259;SDS011;8746;49.230;9.220;2023-06-10T00:57:45;7.17;;;6.57;;
17259;SDS011;8746;49.230;9.220;2023-06-10T01:00:13;7.47;;;6.77;;
17259;SDS011;8746;49.230;9.220;2023-06-10T01:02:40;7.90;;;7.20;;
17259;SDS011;8746;49.230;9.220;2023-06-10T01:05:06;7.93;;;6.50;;
17259;SDS011;8746;49.230;9.220;2023-06-10T01:10:33;7.40;;;6.70;;
17259;SDS011;8746;49.230;9.220;2023-06-10T01:13:03;7.30;;;6.60;;
17259;SDS011;8746;49.230;9.220;2023-06-10T01:15:36;7.20;;;6.60;;
17259;SDS011;8746;49.230;9.220;2023-06-10T01:18:03;6.90;;;6.20;;
17259;SDS011;8746;49.230;9.220;2023-06-10T01:20:33;6.93;;;6.20;;
17259;SDS011;8746;49.230;9.220;2023-06-10T01:23:00;7.93;;;6.40;;
17259;SDS011;8746;49.230;9.220;2023-06-10T01:25:28;6.90;;;6.30;;
17259;SDS011;8746;49.230;9.220;2023-06-10T01:28:00;6.70;;;6.10;;
17259;SDS011;8746;49.230;9.220;2023-06-10T01:30:30;7.30;;;6.63;;
17259;SDS011;8746;49.230;9.220;2023-06-10T01:33:02;7.17;;;6.47;;
17259;SDS011;8746;49.230;9.220;2023-06-10T01:35:31;7.07;;;6.50;;
17259;SDS011;8746;49.230;9.220;2023-06-10T01:38:01;6.57;;;5.90;;
17259;SDS011;8746;49.230;9.220;2023-06-10T01:40:28;7.30;;;6.70;;
17259;SDS011;8746;49.230;9.220;2023-06-10T01:42:54;7.13;;;6.53;;
17259;SDS011;8746;49.230;9.220;2023-06-10T01:45:20;6.93;;;6.37;;
17259;SDS011;8746;49.230;9.220;2023-06-10T01:47:45;6.83;;;6.23;;
17259;SDS011;8746;49.230;9.220;2023-06-10T01:50:10;6.43;;;5.83;;
17259;SDS011;8746;49.230;9.220;2023-06-10T01:52:36;6.80;;;6.20;;
17259;SDS011;8746;49.230;9.220;2023-06-10T01:55:02;6.33;;;5.73;;
17259;SDS011;8746;49.230;9.220;2023-06-10T01:57:28;6.73;;;6.13;;
17259;SDS011;8746;49.230;9.220;2023-06-10T01:59:53;6.47;;;5.97;;
17259;SDS011;8746;49.230;9.220;2023-06-10T02:02:18;7.03;;;6.23;;
17259;SDS011;8746;49.230;9.220;2023-06-10T02:04:44;6.20;;;5.70;;
17259;SDS011;8746;49.230;9.220;2023-06-10T02:07:10;6.33;;;5.73;;
17259;SDS011;8746;49.230;9.220;2023-06-10T02:09:37;6.50;;;6.00;;
17259;SDS011;8746;49.230;9.220;2023-06-10T02:12:03;6.50;;;6.00;;
17259;SDS011;8746;49.230;9.220;2023-06-10T02:14:29;7.40;;;6.53;;
17259;SDS011;8746;49.230;9.220;2023-06-10T02:16:54;6.83;;;6.23;;
17259;SDS011;8746;49.230;9.220;2023-06-10T02:19:21;7.17;;;6.57;;
17259;SDS011;8746;49.230;9.220;2023-06-10T02:21:47;6.70;;;6.20;;
17259;SDS011;8746;49.230;9.220;2023-06-10T02:24:13;7.07;;;6.47;;
17259;SDS011;8746;49.230;9.220;2023-06-10T02:26:38;7.17;;;6.47;;
17259;SDS011;8746;49.230;9.220;2023-06-10T02:29:03;7.07;;;6.37;;
17259;SDS011;8746;49.230;9.220;2023-06-10T02:31:29;6.67;;;6.17;;
17259;SDS011;8746;49.230;9.220;2023-06-10T02:33:54;6.17;;;5.70;;
17259;SDS011;8746;49.230;9.220;2023-06-10T02:36:20;7.17;;;6.47;;
17259;SDS011;8746;49.230;9.220;2023-06-10T02:38:46;6.97;;;6.37;;
17259;SDS011;8746;49.230;9.220;2023-06-10T02:41:12;6.87;;;6.37;;
17259;SDS011;8746;49.230;9.220;2023-06-10T02:43:37;7.07;;;6.40;;
17259;SDS011;8746;49.230;9.220;2023-06-10T02:46:02;6.23;;;5.73;;
17259;SDS011;8746;49.230;9.220;2023-06-10T02:48:28;6.70;;;6.20;;
17259;SDS011;8746;49.230;9.220;2023-06-10T02:50:53;6.73;;;6.13;;
17259;SDS011;8746;49.230;9.220;2023-06-10T02:53:18;7.00;;;6.30;;
17259;SDS011;8746;49.230;9.220;2023-06-10T02:55:44;6.53;;;5.87;;
17259;SDS011;8746;49.230;9.220;2023-06-10T02:58:09;6.90;;;6.27;;
17259;SDS011;8746;49.230;9.220;2023-06-10T03:00:35;6.90;;;6.40;;
17259;SDS011;8746;49.230;9.220;2023-06-10T03:03:01;7.07;;;6.37;;
17259;SDS011;8746;49.230;9.220;2023-06-10T03:05:28;7.00;;;6.40;;
17259;SDS011;8746;49.230;9.220;2023-06-10T03:07:54;8.13;;;6.60;;
17259;SDS011;8746;49.230;9.220;2023-06-10T03:10:20;7.63;;;6.93;;
17259;SDS011;8746;49.230;9.220;2023-06-10T03:12:45;6.97;;;6.23;;
17259;SDS011;8746;49.230;9.220;2023-06-10T03:15:10;7.50;;;6.70;;
17259;SDS011;8746;49.230;9.220;2023-06-10T03:17:36;6.87;;;6.33;;
17259;SDS011;8746;49.230;9.220;2023-06-10T03:20:01;7.20;;;6.60;;
17259;SDS011;8746;49.230;9.220;2023-06-10T03:22:28;6.93;;;6.17;;
17259;SDS011;8746;49.230;9.220;2023-06-10T03:24:53;7.20;;;6.60;;
17259;SDS011;8746;49.230;9.220;2023-06-10T03:27:20;7.03;;;6.43;;
17259;SDS011;8746;49.230;9.220;2023-06-10T03:29:45;7.63;;;6.93;;
17259;SDS011;8746;49.230;9.220;2023-06-10T03:32:10;7.10;;;6.50;;
17259;SDS011;8746;49.230;9.220;2023-06-10T03:34:36;7.23;;;6.50;;
17259;SDS011;8746;49.230;9.220;2023-06-10T03:37:01;7.17;;;6.57;;
17259;SDS011;8746;49.230;9.220;2023-06-10T03:39:27;7.30;;;6.70;;
17259;SDS011;8746;49.230;9.220;2023-06-10T03:41:54;9.03;;;6.93;;
17259;SDS011;8746;49.230;9.220;2023-06-10T03:44:21;8.00;;;7.30;;
17259;SDS011;8746;49.230;9.220;2023-06-10T03:46:46;7.57;;;6.90;;
17259;SDS011;8746;49.230;9.220;2023-06-10T03:49:12;7.40;;;6.80;;
17259;SDS011;8746;49.230;9.220;2023-06-10T03:51:37;7.83;;;7.00;;
17259;SDS011;8746;49.230;9.220;2023-06-10T03:54:03;7.63;;;6.93;;
17259;SDS011;8746;49.230;9.220;2023-06-10T03:56:28;7.63;;;7.03;;
17259;SDS011;8746;49.230;9.220;2023-06-10T03:58:54;7.37;;;6.67;;
17259;SDS011;8746;49.230;9.220;2023-06-10T04:01:20;6.80;;;6.20;;
17259;SDS011;8746;49.230;9.220;2023-06-10T04:03:46;7.60;;;7.00;;
17259;SDS011;8746;49.230;9.220;2023-06-10T04:06:13;7.40;;;6.70;;
17259;SDS011;8746;49.230;9.220;2023-06-10T04:08:39;8.67;;;6.77;;
17259;SDS011;8746;49.230;9.220;2023-06-10T04:11:05;7.17;;;6.47;;
17259;SDS011;8746;49.230;9.220;2023-06-10T04:13:30;7.53;;;6.93;;
17259;SDS011;8746;49.230;9.220;2023-06-10T04:15:56;7.97;;;7.27;;
17259;SDS011;8746;49.230;9.220;2023-06-10T04:18:21;7.77;;;7.07;;
17259;SDS011;8746;49.230;9.220;2023-06-10T04:20:47;8.20;;;7.43;;
17259;SDS011;8746;49.230;9.220;2023-06-10T04:23:12;7.50;;;6.77;;
17259;SDS011;8746;49.230;9.220;2023-06-10T04:25:37;8.13;;;7.33;;
17259;SDS011;8746;49.230;9.220;2023-06-10T04:28:03;7.33;;;6.73;;
17259;SDS011;8746;49.230;9.220;2023-06-10T04:30:28;7.83;;;7.03;;
17259;SDS011;8746;49.230;9.220;2023-06-10T04:32:54;8.07;;;7.27;;
17259;SDS011;8746;49.230;9.220;2023-06-10T04:35:19;7.60;;;7.00;;
17259;SDS011;8746;49.230;9.220;2023-06-10T04:37:44;8.23;;;7.53;;
17259;SDS011;8746;49.230;9.220;2023-06-10T04:40:10;7.70;;;7.00;;
17259;SDS011;8746;49.230;9.220;2023-06-10T04:42:36;7.60;;;6.90;;
17259;SDS011;8746;49.230;9.220;2023-06-10T04:45:01;7.80;;;7.10;;
17259;SDS011;8746;49.230;9.220;2023-06-10T04:47:28;7.90;;;7.07;;
17259;SDS011;8746;49.230;9.220;2023-06-10T04:49:57;9.00;;;7.13;;
17259;SDS011;8746;49.230;9.220;2023-06-10T04:52:23;8.17;;;7.40;;
17259;SDS011;8746;49.230;9.220;2023-06-10T04:54:49;7.93;;;7.23;;
17259;SDS011;8746;49.230;9.220;2023-06-10T04:57:14;8.10;;;7.30;;
17259;SDS011;8746;49.230;9.220;2023-06-10T04:59:40;7.30;;;6.60;;
17259;SDS011;8746;49.230;9.220;2023-06-10T05:02:05;8.43;;;7.50;;
17259;SDS011;8746;49.230;9.220;2023-06-10T05:04:30;7.23;;;6.60;;
17259;SDS011;8746;49.230;9.220;2023-06-10T05:06:56;7.47;;;6.70;;
17259;SDS011;8746;49.230;9.220;2023-06-10T05:09:21;7.07;;;6.50;;
17259;SDS011;8746;49.230;9.220;2023-06-10T05:11:46;8.13;;;7.43;;
17259;SDS011;8746;49.230;9.220;2023-06-10T05:14:12;7.53;;;6.73;;
17259;SDS011;8746;49.230;9.220;2023-06-10T05:16:37;7.80;;;7.03;;
17259;SDS011;8746;49.230;9.220;2023-06-10T05:19:03;7.40;;;6.80;;
17259;SDS011;8746;49.230;9.220;2023-06-10T05:21:29;7.43;;;6.73;;
17259;SDS011;8746;49.230;9.220;2023-06-10T05:23:54;7.93;;;6.67;;
17259;SDS011;8746;49.230;9.220;2023-06-10T05:26:20;7.63;;;6.97;;
17259;SDS011;8746;49.230;9.220;2023-06-10T05:28:45;7.07;;;6.50;;
17259;SDS011;8746;49.230;9.220;2023-06-10T05:31:10;7.60;;;6.80;;
17259;SDS011;8746;49.230;9.220;2023-06-10T05:33:35;7.80;;;7.00;;
17259;SDS011;8746;49.230;9.220;2023-06-10T05:36:01;7.60;;;7.00;;
17259;SDS011;8746;49.230;9.220;2023-06-10T05:38:27;8.53;;;7.20;;
17259;SDS011;8746;49.230;9.220;2023-06-10T05:40:52;7.80;;;7.07;;
17259;SDS011;8746;49.230;9.220;2023-06-10T05:43:17;7.93;;;7.23;;
17259;SDS011;8746;49.230;9.220;2023-06-10T05:45:43;6.90;;;6.40;;
17259;SDS011;8746;49.230;9.220;2023-06-10T05:48:08;7.50;;;6.80;;
17259;SDS011;8746;49.230;9.220;2023-06-10T05:50:33;7.87;;;7.27;;
17259;SDS011;8746;49.230;9.220;2023-06-10T05:53:03;7.50;;;6.90;;
17259;SDS011;8746;49.230;9.220;2023-06-10T05:55:29;8.23;;;7.43;;
17259;SDS011;8746;49.230;9.220;2023-06-10T05:58:00;7.50;;;6.80;;
17259;SDS011;8746;49.230;9.220;2023-06-10T06:00:26;7.77;;;7.17;;
17259;SDS011;8746;49.230;9.220;2023-06-10T06:02:52;7.30;;;6.70;;
17259;SDS011;8746;49.230;9.220;2023-06-10T06:05:18;7.63;;;7.03;;
17259;SDS011;8746;49.230;9.220;2023-06-10T06:07:43;7.27;;;6.67;;
17259;SDS011;8746;49.230;9.220;2023-06-10T06:10:08;6.97;;;6.37;;
17259;SDS011;8746;49.230;9.220;2023-06-10T06:12:34;7.10;;;6.50;;
17259;SDS011;8746;49.230;9.220;2023-06-10T06:14:59;9.20;;;7.00;;
17259;SDS011;8746;49.230;9.220;2023-06-10T06:17:25;7.20;;;6.60;;
17259;SDS011;8746;49.230;9.220;2023-06-10T06:19:50;7.53;;;6.80;;
17259;SDS011;8746;49.230;9.220;2023-06-10T06:22:15;7.40;;;6.80;;
17259;SDS011;8746;49.230;9.220;2023-06-10T06:24:45;7.57;;;6.80;;
17259;SDS011;8746;49.230;9.220;2023-06-10T06:27:10;6.97;;;6.40;;
17259;SDS011;8746;49.230;9.220;2023-06-10T06:29:35;7.20;;;6.60;;
17259;SDS011;8746;49.230;9.220;2023-06-10T06:32:01;7.70;;;6.20;;
17259;SDS011;8746;49.230;9.220;2023-06-10T06:34:26;6.63;;;6.13;;
17259;SDS011;8746;49.230;9.220;2023-06-10T06:36:51;7.22;;;6.53;;
17259;SDS011;8746;49.230;9.220;2023-06-10T06:39:17;7.50;;;6.80;;
17259;SDS011;8746;49.230;9.220;2023-06-10T06:41:42;6.82;;;6.28;;
17259;SDS011;8746;49.230;9.220;2023-06-10T06:44:07;6.80;;;6.20;;
17259;SDS011;8746;49.230;9.220;2023-06-10T06:46:32;6.63;;;6.13;;
17259;SDS011;8746;49.230;9.220;2023-06-10T06:48:58;7.20;;;6.65;;
17259;SDS011;8746;49.230;9.220;2023-06-10T06:51:23;6.78;;;6.07;;
17259;SDS011;8746;49.230;9.220;2023-06-10T06:53:48;7.05;;;6.45;;
17259;SDS011;8746;49.230;9.220;2023-06-10T06:56:16;7.03;;;6.47;;
17259;SDS011;8746;49.230;9.220;2023-06-10T06:58:41;6.75;;;6.22;;
17259;SDS011;8746;49.230;9.220;2023-06-10T07:01:06;6.90;;;6.30;;
17259;SDS011;8746;49.230;9.220;2023-06-10T07:03:32;6.97;;;6.47;;
17259;SDS011;8746;49.230;9.220;2023-06-10T07:05:57;6.70;;;6.20;;
17259;SDS011;8746;49.230;9.220;2023-06-10T07:08:22;7.13;;;6.53;;
17259;SDS011;8746;49.230;9.220;2023-06-10T07:10:48;6.90;;;6.05;;
17259;SDS011;8746;49.230;9.220;2023-06-10T07:13:14;6.65;;;6.13;;
17259;SDS011;8746;49.230;9.220;2023-06-10T07:15:39;6.63;;;6.13;;
17259;SDS011;8746;49.230;9.220;2023-06-10T07:18:04;6.43;;;5.93;;
17259;SDS011;8746;49.230;9.220;2023-06-10T07:20:30;6.57;;;6.00;;
17259;SDS011;8746;49.230;9.220;2023-06-10T07:22:59;6.57;;;6.07;;
17259;SDS011;8746;49.230;9.220;2023-06-10T07:25:24;7.30;;;6.70;;
17259;SDS011;8746;49.230;9.220;2023-06-10T07:27:50;6.22;;;5.65;;
17259;SDS011;8746;49.230;9.220;2023-06-10T07:30:15;7.45;;;6.15;;
17259;SDS011;8746;49.230;9.220;2023-06-10T07:32:40;6.47;;;5.95;;
17259;SDS011;8746;49.230;9.220;2023-06-10T07:35:07;6.30;;;5.70;;
17259;SDS011;8746;49.230;9.220;2023-06-10T07:37:35;6.10;;;5.50;;
17259;SDS011;8746;49.230;9.220;2023-06-10T07:40:01;5.90;;;5.40;;
17259;SDS011;8746;49.230;9.220;2023-06-10T07:42:26;8.80;;;5.85;;
17259;SDS011;8746;49.230;9.220;2023-06-10T07:44:51;6.18;;;5.63;;
17259;SDS011;8746;49.230;9.220;2023-06-10T07:47:17;6.00;;;5.50;;
17259;SDS011;8746;49.230;9.220;2023-06-10T07:49:43;6.13;;;5.57;;
17259;SDS011;8746;49.230;9.220;2023-06-10T07:52:08;6.20;;;5.70;;
17259;SDS011;8746;49.230;9.220;2023-06-10T07:54:33;5.88;;;5.38;;
17259;SDS011;8746;49.230;9.220;2023-06-10T07:56:59;5.85;;;5.35;;
17259;SDS011;8746;49.230;9.220;2023-06-10T07:59:24;6.13;;;5.53;;
17259;SDS011;8746;49.230;9.220;2023-06-10T08:01:51;6.20;;;5.68;;
17259;SDS011;8746;49.230;9.220;2023-06-10T08:04:16;5.95;;;5.50;;
17259;SDS011;8746;49.230;9.220;2023-06-10T08:06:42;5.80;;;5.32;;
17259;SDS011;8746;49.230;9.220;2023-06-10T08:09:07;5.78;;;5.28;;
17259;SDS011;8746;49.230;9.220;2023-06-10T08:11:32;5.03;;;4.72;;
17259;SDS011;8746;49.230;9.220;2023-06-10T08:13:58;6.07;;;5.68;;
17259;SDS011;8746;49.230;9.220;2023-06-10T08:16:23;5.55;;;5.15;;
17259;SDS011;8746;49.230;9.220;2023-06-10T08:18:48;5.88;;;5.47;;
17259;SDS011;8746;49.230;9.220;2023-06-10T08:21:15;5.70;;;5.20;;
17259;SDS011;8746;49.230;9.220;2023-06-10T08:23:40;5.88;;;5.28;;
17259;SDS011;8746;49.230;9.220;2023-06-10T08:26:06;5.35;;;5.00;;
17259;SDS011;8746;49.230;9.220;2023-06-10T08:28:31;6.28;;;5.43;;
17259;SDS011;8746;49.230;9.220;2023-06-10T08:30:56;7.32;;;5.25;;
17259;SDS011;8746;49.230;9.220;2023-06-10T08:33:22;5.53;;;5.13;;
17259;SDS011;8746;49.230;9.220;2023-06-10T08:35:47;5.68;;;5.18;;
17259;SDS011;8746;49.230;9.220;2023-06-10T08:38:13;6.70;;;5.32;;
17259;SDS011;8746;49.230;9.220;2023-06-10T08:40:38;5.50;;;5.05;;
17259;SDS011;8746;49.230;9.220;2023-06-10T08:43:07;5.65;;;5.18;;
17259;SDS011;8746;49.230;9.220;2023-06-10T08:45:36;5.60;;;5.20;;
17259;SDS011;8746;49.230;9.220;2023-06-10T08:48:02;5.45;;;5.05;;
17259;SDS011;8746;49.230;9.220;2023-06-10T08:50:37;5.50;;;5.07;;
17259;SDS011;8746;49.230;9.220;2023-06-10T08:53:04;6.20;;;5.60;;
17259;SDS011;8746;49.230;9.220;2023-06-10T08:55:35;5.80;;;5.30;;
17259;SDS011;8746;49.230;9.220;2023-06-10T08:58:03;5.82;;;5.43;;
17259;SDS011;8746;49.230;9.220;2023-06-10T09:00:29;5.43;;;4.97;;
17259;SDS011;8746;49.230;9.220;2023-06-10T09:02:56;5.80;;;5.32;;
17259;SDS011;8746;49.230;9.220;2023-06-10T09:05:23;4.88;;;4.57;;
17259;SDS011;8746;49.230;9.220;2023-06-10T09:07:48;4.40;;;4.00;;
17259;SDS011;8746;49.230;9.220;2023-06-10T09:10:16;5.38;;;4.70;;
17259;SDS011;8746;49.230;9.220;2023-06-10T09:12:41;5.40;;;4.90;;
17259;SDS011;8746;49.230;9.220;2023-06-10T09:15:07;5.22;;;4.72;;
17259;SDS011;8746;49.230;9.220;2023-06-10T09:17:33;4.82;;;4.32;;
17259;SDS011;8746;49.230;9.220;2023-06-10T09:20:01;4.90;;;4.50;;
17259;SDS011;8746;49.230;9.220;2023-06-10T09:22:27;4.90;;;4.50;;
17259;SDS011;8746;49.230;9.220;2023-06-10T09:25:02;5.15;;;4.75;;
17259;SDS011;8746;49.230;9.220;2023-06-10T09:27:32;5.03;;;4.53;;
17259;SDS011;8746;49.230;9.220;2023-06-10T09:29:57;5.22;;;4.40;;
17259;SDS011;8746;49.230;9.220;2023-06-10T09:32:23;4.60;;;4.30;;
17259;SDS011;8746;49.230;9.220;2023-06-10T09:34:50;4.88;;;4.47;;
17259;SDS011;8746;49.230;9.220;2023-06-10T09:37:25;5.00;;;4.60;;
17259;SDS011;8746;49.230;9.220;2023-06-10T09:40:04;4.30;;;4.00;;
17259;SDS011;8746;49.230;9.220;2023-06-10T09:42:33;4.95;;;4.55;;
17259;SDS011;8746;49.230;9.220;2023-06-10T09:45:03;4.70;;;4.32;;
17259;SDS011;8746;49.230;9.220;2023-06-10T09:47:29;4.50;;;4.20;;
17259;SDS011;8746;49.230;9.220;2023-06-10T09:49:54;4.80;;;4.50;;
17259;SDS011;8746;49.230;9.220;2023-06-10T09:52:26;4.75;;;4.43;;
17259;SDS011;8746;49.230;9.220;2023-06-10T09:54:55;4.68;;;4.35;;
17259;SDS011;8746;49.230;9.220;2023-06-10T09:57:25;4.40;;;4.00;;
17259;SDS011;8746;49.230;9.220;2023-06-10T09:59:53;5.03;;;4.53;;
17259;SDS011;8746;49.230;9.220;2023-06-10T10:02:19;4.75;;;4.35;;
17259;SDS011;8746;49.230;9.220;2023-06-10T10:04:45;4.93;;;4.20;;
17259;SDS011;8746;49.230;9.220;2023-06-10T10:07:11;4.60;;;4.20;;
17259;SDS011;8746;49.230;9.220;2023-06-10T10:09:40;4.40;;;4.05;;
17259;SDS011;8746;49.230;9.220;2023-06-10T10:12:09;4.78;;;4.13;;
17259;SDS011;8746;49.230;9.220;2023-06-10T10:14:39;5.00;;;4.60;;
17259;SDS011;8746;49.230;9.220;2023-06-10T10:17:10;4.75;;;4.32;;
17259;SDS011;8746;49.230;9.220;2023-06-10T10:19:38;4.57;;;4.28;;
17259;SDS011;8746;49.230;9.220;2023-06-10T10:22:14;4.35;;;4.00;;
17259;SDS011;8746;49.230;9.220;2023-06-10T10:24:49;5.10;;;4.63;;
17259;SDS011;8746;49.230;9.220;2023-06-10T10:27:29;6.20;;;5.20;;
17259;SDS011;8746;49.230;9.220;2023-06-10T10:29:58;5.10;;;4.70;;
17259;SDS011;8746;49.230;9.220;2023-06-10T10:32:29;5.57;;;5.18;;
17259;SDS011;8746;49.230;9.220;2023-06-10T10:37:33;4.63;;;4.22;;
17259;SDS011;8746;49.230;9.220;2023-06-10T10:39:59;3.75;;;3.45;;
17259;SDS011;8746;49.230;9.220;2023-06-10T10:42:25;5.18;;;4.50;;
17259;SDS011;8746;49.230;9.220;2023-06-10T10:44:52;4.40;;;3.95;;
17259;SDS011;8746;49.230;9.220;2023-06-10T10:47:19;4.00;;;3.78;;
17259;SDS011;8746;49.230;9.220;2023-06-10T10:49:46;3.90;;;3.60;;
17259;SDS011;8746;49.230;9.220;2023-06-10T10:52:15;3.90;;;3.60;;
17259;SDS011;8746;49.230;9.220;2023-06-10T10:54:43;3.70;;;3.50;;
17259;SDS011;8746;49.230;9.220;2023-06-10T11:02:15;3.97;;;3.67;;
17259;SDS011;8746;49.230;9.220;2023-06-10T11:04:48;4.65;;;4.35;;
17259;SDS011;8746;49.230;9.220;2023-06-10T11:07:14;4.60;;;4.13;;
17259;SDS011;8746;49.230;9.220;2023-06-10T11:10:01;4.15;;;3.63;;
17259;SDS011;8746;49.230;9.220;2023-06-10T11:12:49;4.72;;;4.32;;
17259;SDS011;8746;49.230;9.220;2023-06-10T11:15:29;4.43;;;4.03;;
17259;SDS011;8746;49.230;9.220;2023-06-10T11:34:10;4.78;;;4.38;;
17259;SDS011;8746;49.230;9.220;2023-06-10T11:36:40;4.65;;;4.25;;
17259;SDS011;8746;49.230;9.220;2023-06-10T11:39:07;4.80;;;4.40;;
17259;SDS011;8746;49.230;9.220;2023-06-10T11:41:34;4.72;;;4.32;;
17259;SDS011;8746;49.230;9.220;2023-06-10T11:44:02;6.20;;;4.40;;
17259;SDS011;8746;49.230;9.220;2023-06-10T11:46:29;4.90;;;4.50;;
17259;SDS011;8746;49.230;9.220;2023-06-10T11:48:55;4.28;;;3.97;;
17259;SDS011;8746;49.230;9.220;2023-06-10T11:51:25;4.57;;;4.28;;
17259;SDS011;8746;49.230;9.220;2023-06-10T11:53:52;4.05;;;3.75;;
17259;SDS011;8746;49.230;9.220;2023-06-10T11:56:21;4.53;;;3.83;;
17259;SDS011;8746;49.230;9.220;2023-06-10T11:58:51;3.53;;;3.33;;
17259;SDS011;8746;49.230;9.220;2023-06-10T12:01:29;4.05;;;3.75;;
17259;SDS011;8746;49.230;9.220;2023-06-10T12:04:06;3.50;;;3.20;;
17259;SDS011;8746;49.230;9.220;2023-06-10T12:06:46;3.60;;;3.30;;
17259;SDS011;8746;49.230;9.220;2023-06-10T12:09:16;3.45;;;3.15;;
17259;SDS011;8746;49.230;9.220;2023-06-10T12:11:43;3.30;;;3.00;;
17259;SDS011;8746;49.230;9.220;2023-06-10T12:14:09;2.92;;;2.72;;
17259;SDS011;8746;49.230;9.220;2023-06-10T12:16:35;4.50;;;3.15;;
17259;SDS011;8746;49.230;9.220;2023-06-10T12:19:01;3.20;;;3.03;;
17259;SDS011;8746;49.230;9.220;2023-06-10T12:21:31;3.15;;;2.95;;
17259;SDS011;8746;49.230;9.220;2023-06-10T12:24:05;3.50;;;3.03;;
17259;SDS011;8746;49.230;9.220;2023-06-10T12:26:39;3.53;;;3.33;;
17259;SDS011;8746;49.230;9.220;2023-06-10T12:32:03;5.75;;;3.17;;
17259;SDS011;8746;49.230;9.220;2023-06-10T12:34:31;3.65;;;3.40;;
17259;SDS011;8746;49.230;9.220;2023-06-10T12:36:56;3.38;;;3.17;;
17259;SDS011;8746;49.230;9.220;2023-06-10T12:39:22;3.40;;;3.10;;
17259;SDS011;8746;49.230;9.220;2023-06-10T12:41:48;3.55;;;3.35;;
17259;SDS011;8746;49.230;9.220;2023-06-10T12:44:14;3.20;;;3.00;;
17259;SDS011;8746;49.230;9.220;2023-06-10T12:46:40;3.28;;;3.08;;
17259;SDS011;8746;49.230;9.220;2023-06-10T12:49:05;4.00;;;3.70;;
17259;SDS011;8746;49.230;9.220;2023-06-10T12:51:31;3.40;;;3.20;;
17259;SDS011;8746;49.230;9.220;2023-06-10T12:53:56;3.50;;;3.20;;
17259;SDS011;8746;49.230;9.220;2023-06-10T12:56:27;3.35;;;2.85;;
17259;SDS011;8746;49.230;9.220;2023-06-10T12:58:52;3.58;;;3.13;;
17259;SDS011;8746;49.230;9.220;2023-06-10T13:01:18;3.25;;;3.05;;
17259;SDS011;8746;49.230;9.220;2023-06-10T13:03:43;3.67;;;3.15;;
17259;SDS011;8746;49.230;9.220;2023-06-10T13:06:08;3.80;;;3.13;;
17259;SDS011;8746;49.230;9.220;2023-06-10T13:08:34;3.65;;;3.38;;
17259;SDS011;8746;49.230;9.220;2023-06-10T13:10:59;3.45;;;3.22;;
17259;SDS011;8746;49.230;9.220;2023-06-10T13:13:25;3.28;;;3.08;;
17259;SDS011;8746;49.230;9.220;2023-06-10T13:15:51;3.03;;;2.83;;
17259;SDS011;8746;49.230;9.220;2023-06-10T13:18:16;3.47;;;3.28;;
17259;SDS011;8746;49.230;9.220;2023-06-10T13:20:43;3.20;;;3.00;;
17259;SDS011;8746;49.230;9.220;2023-06-10T13:23:09;3.20;;;3.00;;
17259;SDS011;8746;49.230;9.220;2023-06-10T13:25:34;3.22;;;2.97;;
17259;SDS011;8746;49.230;9.220;2023-06-10T13:28:00;3.08;;;2.88;;
17259;SDS011;8746;49.230;9.220;2023-06-10T13:30:26;2.85;;;2.65;;
17259;SDS011;8746;49.230;9.220;2023-06-10T13:32:51;3.20;;;3.00;;
17259;SDS011;8746;49.230;9.220;2023-06-10T13:35:17;3.45;;;3.25;;
17259;SDS011;8746;49.230;9.220;2023-06-10T13:37:42;3.10;;;2.90;;
17259;SDS011;8746;49.230;9.220;2023-06-10T13:40:07;3.47;;;3.20;;
17259;SDS011;8746;49.230;9.220;2023-06-10T13:42:34;3.10;;;2.90;;
17259;SDS011;8746;49.230;9.220;2023-06-10T13:45:01;3.40;;;3.17;;
17259;SDS011;8746;49.230;9.220;2023-06-10T13:47:26;3.28;;;3.08;;
17259;SDS011;8746;49.230;9.220;2023-06-10T13:49:52;3.10;;;2.90;;
17259;SDS011;8746;49.230;9.220;2023-06-10T13:52:17;2.92;;;2.83;;
17259;SDS011;8746;49.230;9.220;2023-06-10T13:54:42;3.15;;;2.95;;
17259;SDS011;8746;49.230;9.220;2023-06-10T13:57:08;3.40;;;3.20;;
17259;SDS011;8746;49.230;9.220;2023-06-10T13:59:35;3.22;;;3.03;;
17259;SDS011;8746;49.230;9.220;2023-06-10T14:02:00;2.90;;;2.80;;
17259;SDS011;8746;49.230;9.220;2023-06-10T14:04:26;3.63;;;3.25;;
17259;SDS011;8746;49.230;9.220;2023-06-10T14:06:51;3.30;;;3.10;;
17259;SDS011;8746;49.230;9.220;2023-06-10T14:09:17;3.60;;;3.30;;
17259;SDS011;8746;49.230;9.220;2023-06-10T14:11:42;3.50;;;3.30;;
17259;SDS011;8746;49.230;9.220;2023-06-10T14:14:08;3.75;;;3.45;;
17259;SDS011;8746;49.230;9.220;2023-06-10T14:16:34;3.40;;;3.10;;
17259;SDS011;8746;49.230;9.220;2023-06-10T14:18:59;3.17;;;2.97;;
17259;SDS011;8746;49.230;9.220;2023-06-10T14:21:25;2.90;;;2.70;;
17259;SDS011;8746;49.230;9.220;2023-06-10T14:23:50;3.28;;;3.08;;
17259;SDS011;8746;49.230;9.220;2023-06-10T14:26:18;3.10;;;2.90;;
17259;SDS011;8746;49.230;9.220;2023-06-10T14:28:43;3.22;;;3.03;;
17259;SDS011;8746;49.230;9.220;2023-06-10T14:31:09;3.13;;;2.92;;
17259;SDS011;8746;49.230;9.220;2023-06-10T14:33:34;3.30;;;3.00;;
17259;SDS011;8746;49.230;9.220;2023-06-10T14:36:00;2.80;;;2.70;;
17259;SDS011;8746;49.230;9.220;2023-06-10T14:38:26;3.55;;;3.03;;
17259;SDS011;8746;49.230;9.220;2023-06-10T14:40:51;3.13;;;2.92;;
17259;SDS011;8746;49.230;9.220;2023-06-10T14:43:17;3.20;;;2.90;;
17259;SDS011;8746;49.230;9.220;2023-06-10T14:45:42;3.00;;;2.80;;
17259;SDS011;8746;49.230;9.220;2023-06-10T14:48:08;3.92;;;2.97;;
17259;SDS011;8746;49.230;9.220;2023-06-10T14:50:37;3.00;;;2.80;;
17259;SDS011;8746;49.230;9.220;2023-06-10T14:53:03;3.05;;;2.85;;
17259;SDS011;8746;49.230;9.220;2023-06-10T14:55:29;3.03;;;2.83;;
17259;SDS011;8746;49.230;9.220;2023-06-10T14:57:54;3.22;;;3.03;;
17259;SDS011;8746;49.230;9.220;2023-06-10T15:00:20;2.85;;;2.63;;
17259;SDS011;8746;49.230;9.220;2023-06-10T15:02:48;3.08;;;2.88;;
17259;SDS011;8746;49.230;9.220;2023-06-10T15:05:14;3.67;;;3.15;;
17259;SDS011;8746;49.230;9.220;2023-06-10T15:07:40;3.50;;;3.20;;
17259;SDS011;8746;49.230;9.220;2023-06-10T15:10:07;3.53;;;3.22;;
17259;SDS011;8746;49.230;9.220;2023-06-10T15:12:33;3.10;;;2.90;;
17259;SDS011;8746;49.230;9.220;2023-06-10T15:14:59;2.97;;;2.88;;
17259;SDS011;8746;49.230;9.220;2023-06-10T15:17:24;2.92;;;2.80;;
17259;SDS011;8746;49.230;9.220;2023-06-10T15:19:49;2.67;;;2.58;;
17259;SDS011;8746;49.230;9.220;2023-06-10T15:22:15;3.10;;;2.90;;
17259;SDS011;8746;49.230;9.220;2023-06-10T15:24:40;5.05;;;2.80;;
17259;SDS011;8746;49.230;9.220;2023-06-10T15:27:05;2.80;;;2.60;;